createdAt,value
2018-09-20T00:02:00.077Z,6.27
2018-09-20T00:04:29.830Z,6.80
2018-09-20T00:07:04.024Z,6.07
2018-09-20T00:09:34.102Z,6.50
2018-09-20T00:12:05.634Z,6.43
2018-09-20T00:14:35.935Z,6.40
2018-09-20T00:17:06.050Z,5.97
2018-09-20T00:19:36.250Z,7.10
2018-09-20T00:22:05.696Z,7.03
2018-09-20T00:24:36.148Z,6.00
2018-09-20T00:27:06.651Z,5.93
2018-09-20T00:29:36.896Z,5.70
2018-09-20T00:32:07.619Z,5.50
2018-09-20T00:34:37.821Z,5.57
2018-09-20T00:37:08.188Z,6.10
2018-09-20T00:39:38.924Z,5.90
2018-09-20T00:42:13.164Z,6.13
2018-09-20T00:44:43.356Z,5.90
2018-09-20T00:47:13.296Z,5.70
2018-09-20T00:49:42.823Z,6.60
2018-09-20T00:52:12.878Z,5.97
2018-09-20T00:54:42.451Z,5.80
2018-09-20T00:57:13.793Z,5.53
2018-09-20T00:59:43.410Z,5.57
2018-09-20T01:02:14.661Z,6.03
2018-09-20T01:04:44.685Z,5.97
2018-09-20T01:07:14.396Z,5.83
2018-09-20T01:09:44.653Z,5.90
2018-09-20T01:12:14.300Z,6.67
2018-09-20T01:14:44.382Z,6.20
2018-09-20T01:17:13.921Z,6.13
2018-09-20T01:19:43.520Z,5.83
2018-09-20T01:22:13.102Z,5.80
2018-09-20T01:24:43.491Z,6.17
2018-09-20T01:27:13.805Z,6.73
2018-09-20T01:29:43.322Z,6.40
2018-09-20T01:32:13.076Z,6.53
2018-09-20T01:34:42.733Z,6.37
2018-09-20T01:37:12.448Z,6.27
2018-09-20T01:39:41.930Z,6.63
2018-09-20T01:42:12.724Z,7.20
2018-09-20T01:44:43.390Z,6.30
2018-09-20T01:47:14.737Z,7.20
2018-09-20T01:49:44.469Z,7.30
2018-09-20T01:52:14.229Z,6.93
2018-09-20T01:54:43.960Z,6.40
2018-09-20T01:57:13.465Z,7.13
2018-09-20T01:59:43.109Z,7.60
2018-09-20T02:02:13.988Z,7.03
2018-09-20T02:04:44.071Z,8.40
2018-09-20T02:07:14.518Z,7.63
2018-09-20T02:09:43.951Z,7.73
2018-09-20T02:12:14.012Z,7.70
2018-09-20T02:14:43.643Z,7.70
2018-09-20T02:17:13.971Z,9.03
2018-09-20T02:19:43.452Z,8.10
2018-09-20T02:22:13.849Z,8.23
2018-09-20T02:24:44.814Z,8.47
2018-09-20T02:27:14.877Z,7.60
2018-09-20T02:29:44.541Z,8.60
2018-09-20T02:32:13.957Z,8.83
2018-09-20T02:34:43.963Z,8.13
2018-09-20T02:37:13.572Z,9.10
2018-09-20T02:39:43.428Z,9.17
2018-09-20T02:42:13.096Z,8.90
2018-09-20T02:44:42.813Z,8.20
2018-09-20T02:47:19.016Z,9.50
2018-09-20T02:49:50.379Z,8.93
2018-09-20T02:52:19.962Z,8.73
2018-09-20T02:54:49.868Z,8.43
2018-09-20T02:57:19.457Z,10.03
2018-09-20T02:59:49.815Z,8.47
2018-09-20T03:02:19.277Z,7.90
2018-09-20T03:04:49.112Z,8.10
2018-09-20T03:07:19.214Z,8.87
2018-09-20T03:09:48.931Z,7.67
2018-09-20T03:12:18.884Z,7.90
2018-09-20T03:14:50.225Z,8.73
2018-09-20T03:17:20.508Z,7.10
2018-09-20T03:19:52.485Z,7.40
2018-09-20T03:22:22.223Z,6.90
2018-09-20T03:24:55.823Z,7.47
2018-09-20T03:27:26.153Z,5.97
2018-09-20T03:29:57.057Z,6.13
2018-09-20T03:32:26.783Z,6.03
2018-09-20T03:34:58.710Z,6.37
2018-09-20T03:37:28.224Z,6.00
2018-09-20T03:39:59.814Z,5.63
2018-09-20T03:42:29.489Z,6.17
2018-09-20T03:45:01.289Z,6.37
2018-09-20T03:47:31.097Z,6.83
2018-09-20T03:50:01.597Z,6.40
2018-09-20T03:52:35.467Z,6.83
2018-09-20T03:55:05.195Z,5.90
2018-09-20T03:57:36.792Z,6.57
2018-09-20T04:00:06.991Z,6.27
2018-09-20T04:02:36.938Z,6.63
2018-09-20T04:05:06.669Z,6.43
2018-09-20T04:07:38.207Z,7.70
2018-09-20T04:10:09.140Z,7.47
2018-09-20T04:12:39.322Z,8.53
2018-09-20T04:15:09.823Z,8.80
2018-09-20T04:17:42.675Z,8.67
2018-09-20T04:20:13.300Z,9.93
2018-09-20T04:22:43.219Z,10.70
2018-09-20T04:25:12.821Z,11.07
2018-09-20T04:27:42.525Z,12.00
2018-09-20T04:30:12.241Z,11.00
2018-09-20T04:32:41.930Z,10.13
2018-09-20T04:35:12.011Z,10.17
2018-09-20T04:37:42.521Z,9.90
2018-09-20T04:40:12.364Z,11.00
2018-09-20T04:42:43.726Z,10.17
2018-09-20T04:45:13.505Z,10.50
2018-09-20T04:47:43.964Z,10.33
2018-09-20T04:50:16.317Z,8.33
2018-09-20T04:52:46.759Z,8.43
2018-09-20T04:55:17.541Z,8.13
2018-09-20T04:57:47.692Z,8.60
2018-09-20T05:00:17.601Z,7.47
2018-09-20T05:02:47.869Z,8.50
2018-09-20T05:05:17.433Z,7.70
2018-09-20T05:07:47.028Z,7.63
2018-09-20T05:10:16.648Z,7.10
2018-09-20T05:12:46.072Z,6.97
2018-09-20T05:15:16.148Z,8.20
2018-09-20T05:17:46.452Z,7.80
2018-09-20T05:20:16.762Z,7.03
2018-09-20T05:22:46.369Z,7.00
2018-09-20T05:25:17.982Z,8.00
2018-09-20T05:27:48.726Z,7.83
2018-09-20T05:30:18.430Z,8.53
2018-09-20T05:32:48.103Z,8.90
2018-09-20T05:35:18.516Z,7.70
2018-09-20T05:37:48.140Z,7.97
2018-09-20T05:40:17.722Z,7.80
2018-09-20T05:42:47.257Z,8.80
2018-09-20T05:45:16.872Z,8.47
2018-09-20T05:47:46.336Z,9.27
2018-09-20T05:50:15.888Z,9.63
2018-09-20T05:52:46.837Z,9.60
2018-09-20T05:55:17.061Z,8.90
2018-09-20T05:57:47.463Z,9.20
2018-09-20T06:00:16.956Z,8.60
2018-09-20T06:02:47.253Z,8.00
2018-09-20T06:05:16.859Z,7.60
2018-09-20T06:07:53.227Z,7.23
2018-09-20T06:10:22.984Z,7.30
2018-09-20T06:12:52.574Z,7.30
2018-09-20T06:15:22.153Z,8.17
2018-09-20T06:17:53.275Z,7.13
2018-09-20T06:20:24.590Z,7.03
2018-09-20T06:22:54.706Z,7.73
2018-09-20T06:25:24.748Z,7.53
2018-09-20T06:27:54.445Z,6.33
2018-09-20T06:30:24.858Z,7.70
2018-09-20T06:32:54.844Z,7.90
2018-09-20T06:35:25.686Z,7.20
2018-09-20T06:37:55.501Z,7.03
2018-09-20T06:40:26.637Z,7.33
2018-09-20T06:43:00.275Z,7.40
2018-09-20T06:45:34.616Z,9.23
2018-09-20T06:48:05.177Z,12.27
2018-09-20T06:50:34.907Z,11.07
2018-09-20T06:53:05.429Z,9.80
2018-09-20T06:55:36.614Z,11.17
2018-09-20T06:58:07.335Z,11.20
2018-09-20T07:00:36.981Z,9.00
2018-09-20T07:03:07.352Z,8.30
2018-09-20T07:05:38.081Z,8.00
2018-09-20T07:08:08.631Z,8.00
2018-09-20T07:10:39.589Z,7.60
2018-09-20T07:13:10.112Z,8.60
2018-09-20T07:15:45.343Z,8.70
2018-09-20T07:18:15.218Z,8.97
2018-09-20T07:20:44.893Z,9.50
2018-09-20T07:23:14.454Z,9.07
2018-09-20T07:25:44.339Z,10.10
2018-09-20T07:28:14.151Z,10.70
2018-09-20T07:30:45.818Z,10.10
2018-09-20T07:33:15.524Z,8.40
2018-09-20T07:35:45.918Z,8.53
2018-09-20T07:38:16.061Z,8.93
2018-09-20T07:40:46.072Z,8.80
2018-09-20T07:43:15.534Z,8.40
2018-09-20T07:45:45.073Z,6.67
2018-09-20T07:48:15.765Z,7.50
2018-09-20T07:50:45.933Z,7.27
2018-09-20T07:53:16.737Z,8.97
2018-09-20T07:55:47.005Z,7.27
2018-09-20T07:58:16.836Z,8.80
2018-09-20T08:00:49.870Z,7.20
2018-09-20T08:03:20.176Z,7.67
2018-09-20T08:05:51.237Z,6.70
2018-09-20T08:08:23.063Z,8.00
2018-09-20T08:10:52.739Z,9.60
2018-09-20T08:13:22.924Z,9.83
2018-09-20T08:15:53.605Z,9.67
2018-09-20T08:18:23.235Z,9.80
2018-09-20T08:20:53.016Z,8.77
2018-09-20T08:23:22.968Z,8.50
2018-09-20T08:25:58.991Z,8.13
2018-09-20T08:28:29.317Z,9.33
2018-09-20T08:30:59.397Z,9.00
2018-09-20T08:33:45.445Z,9.20
2018-09-20T08:36:28.334Z,8.53
2018-09-20T08:38:59.354Z,10.97
2018-09-20T08:41:34.833Z,9.50
2018-09-20T08:44:05.862Z,9.23
2018-09-20T08:46:37.506Z,9.60
2018-09-20T08:49:12.369Z,8.27
2018-09-20T08:51:41.926Z,9.50
2018-09-20T08:54:11.609Z,8.20
2018-09-20T08:56:41.322Z,9.90
2018-09-20T08:59:10.803Z,9.00
2018-09-20T09:01:40.254Z,9.97
2018-09-20T09:04:15.086Z,9.77
2018-09-20T09:06:46.289Z,9.47
2018-09-20T09:09:21.560Z,9.90
2018-09-20T09:11:51.266Z,9.40
2018-09-20T09:14:20.636Z,8.27
2018-09-20T09:16:50.250Z,10.00
2018-09-20T09:19:19.773Z,9.33
2018-09-20T09:21:50.505Z,10.30
2018-09-20T09:24:20.079Z,9.83
2018-09-20T09:26:49.924Z,10.17
2018-09-20T09:29:27.499Z,9.97
2018-09-20T09:31:57.984Z,10.00
2018-09-20T09:34:28.253Z,10.07
2018-09-20T09:36:57.931Z,8.80
2018-09-20T09:39:27.819Z,10.00
2018-09-20T09:41:58.335Z,9.40
2018-09-20T09:44:27.837Z,9.00
2018-09-20T09:46:58.327Z,9.10
2018-09-20T09:49:28.272Z,10.20
2018-09-20T09:51:58.081Z,10.13
2018-09-20T09:54:27.921Z,9.70
2018-09-20T09:56:57.892Z,10.70
2018-09-20T09:59:27.509Z,9.20
2018-09-20T10:01:57.843Z,9.10
2018-09-20T10:04:27.341Z,10.60
2018-09-20T10:06:57.701Z,9.37
2018-09-20T10:09:27.537Z,9.73
2018-09-20T10:11:57.932Z,9.37
2018-09-20T10:14:27.565Z,9.70
2018-09-20T10:16:57.346Z,8.50
2018-09-20T10:19:26.805Z,7.40
2018-09-20T10:21:58.448Z,8.07
2018-09-20T10:24:28.635Z,8.50
2018-09-20T10:26:59.316Z,7.80
2018-09-20T10:29:29.106Z,7.50
2018-09-20T10:31:59.193Z,8.73
2018-09-20T10:34:33.266Z,8.03
2018-09-20T10:37:04.405Z,8.07
2018-09-20T10:39:34.883Z,7.27
2018-09-20T10:42:06.100Z,8.40
2018-09-20T10:44:41.757Z,8.50
2018-09-20T10:47:11.663Z,8.17
2018-09-20T10:49:42.408Z,7.87
2018-09-20T10:52:12.849Z,7.17
2018-09-20T10:54:42.722Z,8.10
2018-09-20T10:57:12.410Z,8.10
2018-09-20T10:59:42.602Z,8.83
2018-09-20T11:02:12.405Z,9.17
2018-09-20T11:04:42.009Z,7.83
2018-09-20T11:07:12.566Z,7.90
2018-09-20T11:09:42.861Z,7.77
2018-09-20T11:12:12.518Z,8.30
2018-09-20T11:14:43.204Z,8.20
2018-09-20T11:17:13.606Z,8.17
2018-09-20T11:19:43.449Z,8.53
2018-09-20T11:22:14.283Z,8.77
2018-09-20T11:24:44.486Z,8.50
2018-09-20T11:27:15.188Z,7.90
2018-09-20T11:29:44.717Z,7.30
2018-09-20T11:32:14.750Z,8.07
2018-09-20T11:34:44.959Z,7.47
2018-09-20T11:37:14.780Z,7.87
2018-09-20T11:39:45.115Z,7.23
2018-09-20T11:42:14.831Z,6.83
2018-09-20T11:44:44.647Z,7.50
2018-09-20T11:47:14.429Z,7.30
2018-09-20T11:49:44.174Z,7.90
2018-09-20T11:52:14.098Z,7.53
2018-09-20T11:54:44.288Z,7.20
2018-09-20T11:57:13.928Z,6.80
2018-09-20T11:59:43.328Z,7.40
2018-09-20T12:02:12.958Z,7.10
2018-09-20T12:04:43.130Z,7.20
2018-09-20T12:07:13.188Z,6.87
2018-09-20T12:09:42.877Z,6.73
2018-09-20T12:12:12.459Z,6.40
2018-09-20T12:14:43.293Z,6.50
2018-09-20T12:17:12.719Z,5.97
2018-09-20T12:19:42.370Z,5.57
2018-09-20T12:22:13.531Z,6.40
2018-09-20T12:24:43.785Z,7.07
2018-09-20T12:27:13.521Z,6.70
2018-09-20T12:29:43.147Z,6.50
2018-09-20T12:32:12.902Z,6.37
2018-09-20T12:34:42.561Z,7.07
2018-09-20T12:37:12.270Z,6.47
2018-09-20T12:39:41.964Z,5.87
2018-09-20T12:42:12.624Z,6.80
2018-09-20T12:44:42.282Z,6.43
2018-09-20T12:47:12.167Z,6.97
2018-09-20T12:49:44.323Z,6.93
2018-09-20T12:52:15.207Z,5.87
2018-09-20T12:54:45.882Z,6.73
2018-09-20T12:57:16.137Z,6.63
2018-09-20T12:59:46.508Z,6.90
2018-09-20T13:02:16.422Z,6.90
2018-09-20T13:04:45.930Z,6.20
2018-09-20T13:07:15.956Z,6.60
2018-09-20T13:09:45.546Z,6.80
2018-09-20T13:12:15.998Z,7.57
2018-09-20T13:14:47.262Z,7.00
2018-09-20T13:17:17.637Z,7.27
2018-09-20T13:19:47.277Z,6.23
2018-09-20T13:22:23.478Z,7.10
2018-09-20T13:24:53.846Z,7.17
2018-09-20T13:27:23.451Z,7.07
2018-09-20T13:29:53.115Z,6.20
2018-09-20T13:32:23.078Z,7.13
2018-09-20T13:34:53.652Z,6.83
2018-09-20T13:37:23.464Z,6.87
2018-09-20T13:39:53.092Z,6.90
2018-09-20T13:42:24.547Z,6.67
2018-09-20T13:44:54.809Z,6.57
2018-09-20T13:47:24.483Z,7.93
2018-09-20T13:49:54.320Z,7.30
2018-09-20T13:52:23.997Z,7.13
2018-09-20T13:54:53.564Z,6.93
2018-09-20T13:57:23.222Z,7.00
2018-09-20T13:59:53.434Z,6.60
2018-09-20T14:02:23.147Z,7.37
2018-09-20T14:04:52.761Z,7.20
2018-09-20T14:07:22.559Z,7.90
2018-09-20T14:09:52.654Z,6.70
2018-09-20T14:12:23.524Z,7.70
2018-09-20T14:14:53.292Z,7.83
2018-09-20T14:17:23.479Z,7.37
2018-09-20T14:19:53.239Z,7.80
2018-09-20T14:22:23.155Z,7.70
2018-09-20T14:24:52.957Z,7.37
2018-09-20T14:27:22.613Z,7.07
2018-09-20T14:29:52.541Z,8.37
2018-09-20T14:32:22.906Z,7.33
2018-09-20T14:34:52.551Z,7.83
2018-09-20T14:37:22.267Z,8.00
2018-09-20T14:39:52.815Z,8.67
2018-09-20T14:42:26.606Z,7.47
2018-09-20T14:44:56.205Z,9.30
2018-09-20T14:47:28.121Z,8.67
2018-09-20T14:50:04.922Z,7.93
2018-09-20T14:52:40.492Z,7.30
2018-09-20T14:55:10.300Z,7.60
2018-09-20T14:57:39.706Z,7.90
2018-09-20T15:00:09.165Z,7.10
2018-09-20T15:02:38.613Z,7.50
2018-09-20T15:05:09.165Z,7.33
2018-09-20T15:07:44.465Z,8.00
2018-09-20T15:10:14.256Z,8.27
2018-09-20T15:13:15.877Z,7.60
2018-09-20T15:15:46.078Z,7.40
2018-09-20T15:18:16.235Z,7.67
2018-09-20T15:20:45.809Z,8.20
2018-09-20T15:23:16.194Z,7.90
2018-09-20T15:25:46.855Z,7.60
2018-09-20T15:28:16.520Z,8.40
2018-09-20T15:30:46.858Z,7.73
2018-09-20T15:33:16.657Z,8.10
2018-09-20T15:35:47.376Z,7.20
2018-09-20T15:38:18.211Z,7.40
2018-09-20T15:40:48.257Z,8.10
2018-09-20T15:43:18.391Z,7.60
2018-09-20T15:45:47.994Z,7.70
2018-09-20T15:48:17.802Z,7.57
2018-09-20T15:50:47.454Z,7.07
2018-09-20T15:53:16.981Z,7.50
2018-09-20T15:55:47.218Z,8.43
2018-09-20T15:58:17.158Z,7.97
2018-09-20T16:00:47.365Z,7.63
2018-09-20T16:03:17.163Z,7.50
2018-09-20T16:05:48.097Z,8.00
2018-09-20T16:08:17.531Z,7.40
2018-09-20T16:10:47.672Z,7.30
2018-09-20T16:13:17.963Z,8.00
2018-09-20T16:15:48.162Z,7.30
2018-09-20T16:18:18.030Z,8.00
2018-09-20T16:20:47.494Z,8.17
2018-09-20T16:23:18.411Z,8.17
2018-09-20T16:25:49.800Z,7.30
2018-09-20T16:28:28.799Z,8.00
2018-09-20T16:31:14.878Z,8.27
2018-09-20T16:34:09.454Z,8.03
2018-09-20T16:36:56.002Z,7.80
2018-09-20T16:39:27.468Z,7.90
2018-09-20T16:42:01.977Z,8.30
2018-09-20T16:44:32.208Z,7.40
2018-09-20T16:47:01.915Z,8.00
2018-09-20T16:49:31.571Z,8.03
2018-09-20T16:52:02.114Z,8.00
2018-09-20T16:54:31.789Z,9.70
2018-09-20T16:57:01.505Z,8.33
2018-09-20T16:59:34.656Z,9.57
2018-09-20T17:02:05.126Z,8.90
2018-09-20T17:04:35.305Z,8.80
2018-09-20T17:07:05.052Z,9.80
2018-09-20T17:09:34.781Z,8.93
2018-09-20T17:12:04.441Z,9.10
2018-09-20T17:14:34.595Z,10.10
2018-09-20T17:17:04.712Z,9.07
2018-09-20T17:19:35.037Z,9.80
2018-09-20T17:22:05.544Z,9.37
2018-09-20T17:24:34.998Z,9.77
2018-09-20T17:27:05.140Z,9.17
2018-09-20T17:29:36.046Z,9.37
2018-09-20T17:32:06.301Z,9.17
2018-09-20T17:34:37.166Z,9.50
2018-09-20T17:37:08.200Z,8.50
2018-09-20T17:39:38.880Z,9.20
2018-09-20T17:42:11.025Z,9.87
2018-09-20T17:44:40.780Z,9.30
2018-09-20T17:47:11.967Z,9.13
2018-09-20T17:49:42.171Z,9.13
2018-09-20T17:52:12.421Z,10.13
2018-09-20T17:54:42.790Z,9.60
2018-09-20T17:57:13.018Z,9.53
2018-09-20T17:59:43.499Z,10.57
2018-09-20T18:02:13.020Z,9.47
2018-09-20T18:04:42.905Z,9.80
2018-09-20T18:07:13.277Z,9.63
2018-09-20T18:09:43.104Z,8.80
2018-09-20T18:12:13.611Z,10.50
2018-09-20T18:14:43.270Z,9.40
2018-09-20T18:17:14.282Z,9.30
2018-09-20T18:19:43.717Z,9.40
2018-09-20T18:22:14.118Z,9.57
2018-09-20T18:24:44.206Z,10.90
2018-09-20T18:27:14.440Z,11.93
2018-09-20T18:29:43.957Z,10.00
2018-09-20T18:32:14.922Z,9.70
2018-09-20T18:34:44.473Z,9.43
2018-09-20T18:37:14.666Z,10.10
2018-09-20T18:39:44.230Z,10.50
2018-09-20T18:42:13.682Z,9.80
2018-09-20T18:44:43.178Z,10.30
2018-09-20T18:47:12.733Z,10.40
2018-09-20T18:49:42.209Z,10.60
2018-09-20T18:52:11.854Z,10.87
2018-09-20T18:54:41.647Z,10.17
2018-09-20T18:57:12.082Z,11.10
2018-09-20T18:59:41.590Z,10.33
2018-09-20T19:02:11.984Z,10.60
2018-09-20T19:04:42.197Z,11.00
2018-09-20T19:07:12.080Z,10.77
2018-09-20T19:09:42.435Z,11.60
2018-09-20T19:12:12.185Z,11.67
2018-09-20T19:14:41.888Z,12.43
2018-09-20T19:17:11.405Z,13.30
2018-09-20T19:19:41.175Z,12.00
2018-09-20T19:22:11.357Z,12.77
2018-09-20T19:24:42.349Z,12.70
2018-09-20T19:27:12.155Z,11.00
2018-09-20T19:29:42.475Z,12.27
2018-09-20T19:32:12.414Z,12.67
2018-09-20T19:34:42.167Z,11.97
2018-09-20T19:37:12.611Z,12.40
2018-09-20T19:39:42.604Z,11.77
2018-09-20T19:42:12.356Z,11.80
2018-09-20T19:44:42.454Z,11.90
2018-09-20T19:47:15.171Z,11.20
2018-09-20T19:49:46.223Z,11.87
2018-09-20T19:52:16.016Z,12.93
2018-09-20T19:54:45.604Z,10.67
2018-09-20T19:57:16.624Z,11.00
2018-09-20T19:59:46.945Z,11.40
2018-09-20T20:02:16.702Z,11.67
2018-09-20T20:04:47.101Z,11.17
2018-09-20T20:07:17.308Z,11.47
2018-09-20T20:09:46.949Z,11.77
2018-09-20T20:12:16.518Z,12.03
2018-09-20T20:14:46.012Z,12.40
2018-09-20T20:17:15.563Z,10.93
2018-09-20T20:19:45.132Z,11.37
2018-09-20T20:22:14.616Z,11.87
2018-09-20T20:24:44.094Z,12.00
2018-09-20T20:27:14.418Z,12.50
2018-09-20T20:29:44.916Z,12.60
2018-09-20T20:32:15.317Z,12.43
2018-09-20T20:34:45.531Z,11.90
2018-09-20T20:37:15.253Z,12.37
2018-09-20T20:39:44.794Z,12.07
2018-09-20T20:42:14.325Z,12.10
2018-09-20T20:44:43.874Z,12.83
2018-09-20T20:47:13.492Z,11.60
2018-09-20T20:49:44.270Z,12.30
2018-09-20T20:52:13.880Z,11.60
2018-09-20T20:54:44.157Z,12.93
2018-09-20T20:57:15.033Z,11.30
2018-09-20T20:59:44.748Z,12.37
2018-09-20T21:02:14.354Z,11.60
2018-09-20T21:04:43.996Z,12.80
2018-09-20T21:07:13.878Z,12.83
2018-09-20T21:09:43.579Z,11.90
2018-09-20T21:12:13.288Z,14.07
2018-09-20T21:14:42.850Z,13.50
2018-09-20T21:17:12.890Z,12.97
2018-09-20T21:19:43.313Z,13.03
2018-09-20T21:22:13.012Z,14.03
2018-09-20T21:24:43.202Z,15.50
2018-09-20T21:27:12.853Z,15.83
2018-09-20T21:29:43.185Z,15.40
2018-09-20T21:32:13.764Z,13.90
2018-09-20T21:34:43.257Z,14.67
2018-09-20T21:37:12.980Z,14.67
2018-09-20T21:39:42.907Z,14.47
2018-09-20T21:42:13.988Z,14.63
2018-09-20T21:44:44.233Z,15.03
2018-09-20T21:47:14.300Z,14.73
2018-09-20T21:49:43.905Z,14.37
2018-09-20T21:52:14.145Z,14.27
2018-09-20T21:54:43.986Z,14.27
2018-09-20T21:57:14.242Z,13.10
2018-09-20T21:59:46.240Z,13.77
2018-09-20T22:02:21.121Z,14.90
2018-09-20T22:04:50.889Z,14.03
2018-09-20T22:07:20.420Z,14.83
2018-09-20T22:09:49.964Z,15.50
2018-09-20T22:12:19.592Z,15.10
2018-09-20T22:14:49.541Z,15.00
2018-09-20T22:17:19.851Z,15.33
2018-09-20T22:19:49.627Z,13.90
2018-09-20T22:22:19.449Z,14.50
2018-09-20T22:24:49.155Z,15.27
2018-09-20T22:27:19.041Z,14.60
2018-09-20T22:29:50.295Z,15.30
2018-09-20T22:32:20.037Z,14.53
2018-09-20T22:34:49.899Z,14.40
2018-09-20T22:37:19.514Z,14.10
2018-09-20T22:39:49.222Z,14.20
2018-09-20T22:42:19.988Z,14.60
2018-09-20T22:44:50.611Z,13.80
2018-09-20T22:47:20.141Z,13.70
2018-09-20T22:49:50.411Z,15.13
2018-09-20T22:52:20.508Z,15.17
2018-09-20T22:54:50.406Z,14.40
2018-09-20T22:57:20.449Z,14.73
2018-09-20T22:59:50.221Z,14.70
2018-09-20T23:02:20.460Z,16.83
2018-09-20T23:04:50.333Z,16.63
2018-09-20T23:07:20.912Z,16.20
2018-09-20T23:09:52.637Z,15.87
2018-09-20T23:12:23.001Z,15.70
2018-09-20T23:14:53.129Z,15.10
2018-09-20T23:17:22.844Z,14.97
2018-09-20T23:19:52.708Z,15.43
2018-09-20T23:22:23.537Z,15.40
2018-09-20T23:24:53.725Z,16.13
2018-09-20T23:27:24.093Z,16.50
2018-09-20T23:29:54.220Z,15.13
2018-09-20T23:32:24.376Z,15.73
2018-09-20T23:34:54.765Z,15.50
2018-09-20T23:37:25.254Z,15.60
2018-09-20T23:39:55.136Z,15.23
2018-09-20T23:42:25.691Z,16.17
2018-09-20T23:44:56.938Z,17.00
2018-09-20T23:47:26.617Z,17.70
2018-09-20T23:49:56.322Z,16.30
2018-09-20T23:52:26.806Z,16.23
2018-09-20T23:54:59.413Z,15.80
2018-09-20T23:57:29.982Z,16.57
